createdAt,value
2023-03-26T00:01:21.177Z,0.06
2023-03-26T00:03:53.618Z,-1.09
2023-03-26T00:06:23.035Z,-0.06
2023-03-26T00:08:50.123Z,-0.50
2023-03-26T00:11:18.696Z,0.50
2023-03-26T00:13:46.772Z,0.43
2023-03-26T00:16:18.318Z,0.63
2023-03-26T00:18:44.994Z,0.63
2023-03-26T00:21:20.995Z,-0.09
2023-03-26T00:23:49.275Z,-2.83
2023-03-26T00:26:17.511Z,0.38
2023-03-26T00:28:44.689Z,0.44
2023-03-26T00:31:14.637Z,-0.59
2023-03-26T00:33:42.051Z,-0.14
2023-03-26T00:36:17.537Z,0.45
2023-03-26T00:38:46.899Z,-0.53
2023-03-26T00:41:18.005Z,0.39
2023-03-26T00:43:48.950Z,0.44
2023-03-26T00:46:17.445Z,-0.24
2023-03-26T00:48:46.339Z,-0.08
2023-03-26T00:51:18.106Z,-0.12
2023-03-26T00:53:46.466Z,0.34
2023-03-26T00:56:13.905Z,-0.10
2023-03-26T00:58:40.697Z,-0.03
2023-03-26T01:01:13.984Z,-0.30
2023-03-26T01:03:53.115Z,-2.73
2023-03-26T01:06:32.699Z,0.08
2023-03-26T01:09:04.459Z,-0.72
2023-03-26T01:11:34.964Z,-1.82
2023-03-26T01:14:10.271Z,0.24
2023-03-26T01:16:47.381Z,0.41
2023-03-26T01:19:29.742Z,0.56
2023-03-26T01:21:58.156Z,0.63
2023-03-26T01:24:24.874Z,-0.15
2023-03-26T01:27:13.184Z,-0.32
2023-03-26T01:29:44.630Z,-0.03
2023-03-26T01:32:47.586Z,-0.76
2023-03-26T01:35:37.159Z,0.39
2023-03-26T01:38:23.806Z,0.44
2023-03-26T01:41:21.322Z,0.06
2023-03-26T01:44:03.418Z,-0.25
2023-03-26T01:46:36.159Z,0.60
2023-03-26T01:49:13.007Z,0.63
2023-03-26T01:51:42.199Z,0.12
2023-03-26T01:54:13.427Z,-0.61
2023-03-26T01:57:03.728Z,-0.96
2023-03-26T01:59:41.798Z,-1.19
2023-03-26T02:02:21.762Z,-3.88
2023-03-26T02:05:01.561Z,-1.14
2023-03-26T02:07:44.635Z,-1.93
2023-03-26T02:10:16.930Z,-3.63
2023-03-26T02:12:45.773Z,-0.47
2023-03-26T02:15:13.275Z,-0.42
2023-03-26T02:17:40.462Z,-1.47
2023-03-26T02:20:14.207Z,-1.89
2023-03-26T02:22:45.940Z,-0.57
2023-03-26T02:25:20.483Z,-0.73
2023-03-26T02:27:52.256Z,-0.57
2023-03-26T02:30:25.695Z,-1.93
2023-03-26T02:32:59.105Z,-0.90
2023-03-26T02:35:29.570Z,-0.88
2023-03-26T02:37:59.637Z,-0.87
2023-03-26T02:40:26.405Z,0.21
2023-03-26T02:42:53.138Z,0.30
2023-03-26T02:45:19.914Z,-0.88
2023-03-26T02:48:24.669Z,0.25
2023-03-26T02:50:54.994Z,-0.12
2023-03-26T02:53:41.286Z,0.10
2023-03-26T02:56:24.816Z,-0.29
2023-03-26T02:59:04.726Z,-0.79
2023-03-26T03:01:35.033Z,0.41
2023-03-26T03:04:04.274Z,0.22
2023-03-26T03:06:40.931Z,-0.81
2023-03-26T03:09:11.172Z,-2.41
2023-03-26T03:11:39.374Z,-0.08
2023-03-26T03:14:07.155Z,0.34
2023-03-26T03:16:34.608Z,0.41
2023-03-26T03:19:10.699Z,-0.53
2023-03-26T03:21:41.058Z,0.66
2023-03-26T03:24:09.506Z,0.64
2023-03-26T03:26:42.372Z,-1.05
2023-03-26T03:29:24.398Z,-1.52
2023-03-26T03:31:51.529Z,-0.88
2023-03-26T03:34:38.669Z,-1.24
2023-03-26T03:37:06.177Z,-1.25
2023-03-26T03:39:41.448Z,-0.91
2023-03-26T03:42:08.610Z,-1.35
2023-03-26T03:44:36.143Z,-0.86
2023-03-26T03:47:10.952Z,-1.95
2023-03-26T03:49:37.584Z,-2.25
2023-03-26T03:52:04.313Z,-1.05
2023-03-26T03:54:37.043Z,-1.50
2023-03-26T03:57:31.138Z,-2.06
2023-03-26T04:00:01.461Z,-0.93
2023-03-26T04:02:42.969Z,-1.40
2023-03-26T04:05:11.737Z,-2.55
2023-03-26T04:07:45.287Z,-1.00
2023-03-26T04:10:26.903Z,-0.76
2023-03-26T04:13:13.295Z,-1.51
2023-03-26T04:16:06.116Z,-1.35
2023-03-26T04:18:33.101Z,-2.15
2023-03-26T04:21:07.682Z,-1.72
2023-03-26T04:23:34.783Z,-1.16
2023-03-26T04:26:13.358Z,-1.44
2023-03-26T04:29:06.233Z,-2.75
2023-03-26T04:31:36.222Z,-2.16
2023-03-26T04:34:08.023Z,-1.72
2023-03-26T04:36:42.850Z,-1.93
2023-03-26T04:39:13.120Z,-1.77
2023-03-26T04:42:10.012Z,-1.99
2023-03-26T04:44:50.792Z,-2.81
2023-03-26T04:47:18.828Z,-2.47
2023-03-26T04:49:47.725Z,-2.94
2023-03-26T04:52:15.913Z,-1.84
2023-03-26T04:54:57.681Z,-2.70
2023-03-26T04:57:38.369Z,-2.62
2023-03-26T05:00:16.108Z,-2.37
2023-03-26T05:02:45.946Z,-1.80
2023-03-26T05:05:12.830Z,-3.03
2023-03-26T05:07:39.661Z,-2.07
2023-03-26T05:10:14.141Z,-2.02
2023-03-26T05:12:49.728Z,-2.56
2023-03-26T05:15:20.623Z,-1.80
2023-03-26T05:18:01.136Z,-2.34
2023-03-26T05:20:38.288Z,-1.75
2023-03-26T05:23:08.064Z,-1.83
2023-03-26T05:25:43.515Z,-1.90
2023-03-26T05:28:23.292Z,-1.99
2023-03-26T05:30:56.782Z,-2.04
2023-03-26T05:33:26.175Z,-2.61
2023-03-26T05:36:07.163Z,-4.15
2023-03-26T05:38:34.053Z,-2.47
2023-03-26T05:41:06.239Z,-2.04
2023-03-26T05:43:34.648Z,-2.78
2023-03-26T05:46:07.754Z,-3.87
2023-03-26T05:48:34.550Z,-2.04
2023-03-26T05:51:01.584Z,-2.37
2023-03-26T05:53:30.840Z,-2.83
2023-03-26T05:56:16.073Z,-3.91
2023-03-26T05:59:01.586Z,-3.22
2023-03-26T06:01:29.363Z,-3.51
2023-03-26T06:04:18.656Z,-2.65
2023-03-26T06:07:02.275Z,-2.67
2023-03-26T06:09:29.515Z,-2.60
2023-03-26T06:11:56.468Z,-3.38
2023-03-26T06:14:23.172Z,-2.90
2023-03-26T06:17:12.048Z,-2.35
2023-03-26T06:20:14.576Z,-3.78
2023-03-26T06:22:44.873Z,-2.89
2023-03-26T06:25:21.057Z,-2.27
2023-03-26T06:28:13.831Z,-2.46
2023-03-26T06:30:50.157Z,-2.58
2023-03-26T06:33:30.018Z,-2.42
2023-03-26T06:35:58.099Z,-2.69
2023-03-26T06:38:25.440Z,-3.38
2023-03-26T06:40:52.541Z,-2.35
2023-03-26T06:43:24.970Z,-2.46
2023-03-26T06:46:11.210Z,-2.78
2023-03-26T06:48:38.420Z,-2.55
2023-03-26T06:51:27.975Z,-2.16
2023-03-26T06:54:04.100Z,-1.82
2023-03-26T06:56:49.385Z,-4.60
2023-03-26T06:59:29.728Z,-3.58
2023-03-26T07:02:14.757Z,-2.63
2023-03-26T07:04:59.892Z,-2.71
2023-03-26T07:07:46.325Z,-3.86
2023-03-26T07:10:36.943Z,-2.59
2023-03-26T07:13:17.217Z,-2.09
2023-03-26T07:16:02.478Z,-2.09
2023-03-26T07:18:58.544Z,-2.11
2023-03-26T07:21:30.857Z,-1.95
2023-03-26T07:23:59.737Z,-2.15
2023-03-26T07:27:09.931Z,-2.05
2023-03-26T07:29:57.629Z,-2.91
2023-03-26T07:32:59.447Z,-2.58
2023-03-26T07:36:03.254Z,-2.19
2023-03-26T07:38:54.347Z,-1.82
2023-03-26T07:41:50.908Z,-1.83
2023-03-26T07:44:53.981Z,-2.56
2023-03-26T07:47:42.394Z,-1.65
2023-03-26T07:50:21.188Z,-2.02
2023-03-26T07:53:02.290Z,-3.16
2023-03-26T07:56:20.460Z,-1.79
2023-03-26T07:59:19.470Z,-1.78
2023-03-26T08:02:44.210Z,-2.28
2023-03-26T08:06:09.060Z,-4.23
2023-03-26T08:09:03.568Z,-2.34
2023-03-26T08:12:12.549Z,-3.76
2023-03-26T08:14:49.802Z,-3.95
2023-03-26T08:17:37.912Z,-2.43
2023-03-26T08:20:23.076Z,-2.00
2023-03-26T08:22:58.709Z,-1.71
2023-03-26T08:25:35.127Z,-1.62
2023-03-26T08:28:11.968Z,-2.80
2023-03-26T08:30:38.701Z,-2.81
2023-03-26T08:33:20.644Z,-1.48
2023-03-26T08:35:48.532Z,-3.32
2023-03-26T08:38:18.779Z,-1.70
2023-03-26T08:41:11.567Z,-2.02
2023-03-26T08:44:20.740Z,-2.12
2023-03-26T08:47:18.364Z,-2.19
2023-03-26T08:50:15.484Z,-2.43
2023-03-26T08:52:42.075Z,-2.15
2023-03-26T08:55:46.322Z,-2.30
2023-03-26T08:58:50.665Z,-1.89
2023-03-26T09:01:48.125Z,-2.01
2023-03-26T09:04:52.859Z,-1.69
2023-03-26T09:07:26.186Z,-1.41
2023-03-26T09:10:27.013Z,-1.17
2023-03-26T09:13:34.022Z,-1.56
2023-03-26T09:16:38.319Z,-1.19
2023-03-26T09:19:17.373Z,-1.13
2023-03-26T09:22:02.744Z,-1.06
2023-03-26T09:24:40.349Z,-0.89
2023-03-26T09:27:44.913Z,-1.10
2023-03-26T09:30:29.595Z,-1.00
2023-03-26T09:33:13.587Z,-1.27
2023-03-26T09:36:26.094Z,-1.25
2023-03-26T09:39:31.330Z,-0.74
2023-03-26T09:42:09.222Z,-0.66
2023-03-26T09:44:55.509Z,-0.93
2023-03-26T09:47:41.387Z,-1.14
2023-03-26T09:50:14.029Z,-1.35
2023-03-26T09:52:54.997Z,-1.69
2023-03-26T09:55:44.710Z,-0.43
2023-03-26T09:58:42.210Z,-0.26
2023-03-26T10:01:25.139Z,-0.63
2023-03-26T10:03:57.083Z,-0.68
2023-03-26T10:06:53.829Z,-0.66
2023-03-26T10:09:43.415Z,-0.90
2023-03-26T10:12:21.451Z,-0.78
2023-03-26T10:15:03.109Z,-0.64
2023-03-26T10:17:48.591Z,-0.65
2023-03-26T10:20:30.725Z,-0.64
2023-03-26T10:23:37.977Z,-0.51
2023-03-26T10:26:16.120Z,-0.82
2023-03-26T10:29:04.678Z,-0.59
2023-03-26T10:31:53.274Z,-1.05
2023-03-26T10:34:32.358Z,-1.01
2023-03-26T10:37:18.192Z,-1.08
2023-03-26T10:40:02.594Z,-0.73
2023-03-26T10:43:01.080Z,-0.64
2023-03-26T10:45:37.010Z,-0.70
2023-03-26T10:48:18.226Z,-0.71
2023-03-26T10:50:50.850Z,-0.27
2023-03-26T10:53:45.227Z,-0.32
2023-03-26T10:56:26.566Z,-0.60
2023-03-26T10:58:56.864Z,-0.94
2023-03-26T11:01:48.137Z,-0.32
2023-03-26T11:04:23.415Z,-0.76
2023-03-26T11:07:22.356Z,-1.44
2023-03-26T11:10:25.537Z,-0.86
2023-03-26T11:13:04.838Z,-0.33
2023-03-26T11:16:06.583Z,-0.01
2023-03-26T11:18:59.330Z,0.06
2023-03-26T11:22:02.441Z,0.20
2023-03-26T11:24:29.031Z,0.22
2023-03-26T11:27:15.439Z,0.38
2023-03-26T11:30:07.676Z,0.47
2023-03-26T11:32:44.061Z,-0.26
2023-03-26T11:35:44.795Z,0.34
2023-03-26T11:38:40.166Z,0.32
2023-03-26T11:41:15.912Z,0.32
2023-03-26T11:44:04.002Z,0.22
2023-03-26T11:46:33.829Z,0.14
2023-03-26T11:49:06.838Z,-1.19
2023-03-26T11:51:51.860Z,0.01
2023-03-26T11:54:21.104Z,-0.04
2023-03-26T11:57:05.546Z,-0.85
2023-03-26T12:00:16.879Z,0.24
2023-03-26T12:02:46.053Z,-0.09
2023-03-26T12:05:26.464Z,-0.51
2023-03-26T12:07:58.011Z,0.33
2023-03-26T12:10:39.291Z,0.54
2023-03-26T12:13:30.344Z,0.40
2023-03-26T12:16:06.907Z,0.68
2023-03-26T12:18:34.241Z,0.08
2023-03-26T12:21:17.606Z,0.84
2023-03-26T12:24:00.033Z,0.48
2023-03-26T12:26:42.786Z,1.07
2023-03-26T12:29:17.298Z,1.06
2023-03-26T12:32:07.204Z,0.40
2023-03-26T12:34:39.472Z,0.90
2023-03-26T12:37:08.341Z,0.12
2023-03-26T12:40:08.000Z,1.23
2023-03-26T12:44:48.897Z,0.40
2023-03-26T12:45:30.137Z,0.79
2023-03-26T12:48:03.765Z,0.25
2023-03-26T12:50:35.655Z,1.03
2023-03-26T12:53:16.035Z,0.32
2023-03-26T12:55:58.408Z,0.60
2023-03-26T12:58:58.230Z,0.62
2023-03-26T13:01:55.927Z,0.64
2023-03-26T13:04:54.996Z,0.73
2023-03-26T13:07:28.937Z,0.92
2023-03-26T13:10:23.650Z,1.08
2023-03-26T13:13:10.798Z,1.13
2023-03-26T13:15:44.679Z,0.77
2023-03-26T13:18:54.292Z,0.88
2023-03-26T13:21:46.742Z,-0.11
2023-03-26T13:24:28.747Z,0.10
2023-03-26T13:27:09.536Z,0.85
2023-03-26T13:29:42.049Z,0.38
2023-03-26T13:32:20.081Z,0.27
2023-03-26T13:35:02.723Z,0.34
2023-03-26T13:37:42.316Z,-1.14
2023-03-26T13:40:41.258Z,0.26
2023-03-26T13:43:26.767Z,0.65
2023-03-26T13:46:13.625Z,-0.40
2023-03-26T13:48:53.027Z,0.98
2023-03-26T13:51:32.874Z,0.90
2023-03-26T13:54:31.351Z,0.36
2023-03-26T13:57:20.193Z,1.28
2023-03-26T13:59:59.753Z,1.32
2023-03-26T14:02:39.839Z,1.00
2023-03-26T14:05:17.353Z,0.99
2023-03-26T14:07:53.358Z,0.22
2023-03-26T14:10:24.759Z,0.99
2023-03-26T14:13:32.972Z,1.10
2023-03-26T14:16:09.921Z,1.21
2023-03-26T14:19:27.490Z,0.87
2023-03-26T14:22:03.524Z,0.97
2023-03-26T14:24:52.556Z,0.81
2023-03-26T14:27:40.481Z,0.75
2023-03-26T14:30:22.757Z,0.79
2023-03-26T14:33:38.505Z,0.93
2023-03-26T14:36:38.221Z,1.05
2023-03-26T14:39:10.980Z,1.00
2023-03-26T14:41:48.856Z,1.00
2023-03-26T14:44:52.735Z,1.13
2023-03-26T14:47:21.826Z,0.78
2023-03-26T14:50:20.312Z,0.50
2023-03-26T14:52:51.657Z,0.61
2023-03-26T14:55:52.093Z,0.55
2023-03-26T14:58:56.132Z,0.83
2023-03-26T15:01:28.236Z,0.75
2023-03-26T15:04:32.715Z,0.65
2023-03-26T15:07:22.725Z,0.91
2023-03-26T15:10:10.043Z,1.06
2023-03-26T15:13:01.585Z,1.17
2023-03-26T15:15:38.894Z,-1.01
2023-03-26T15:18:44.462Z,1.06
2023-03-26T15:21:11.105Z,1.04
2023-03-26T15:24:23.670Z,1.11
2023-03-26T15:27:09.046Z,0.74
2023-03-26T15:29:54.580Z,0.76
2023-03-26T15:32:57.219Z,0.61
2023-03-26T15:35:42.433Z,0.90
2023-03-26T15:38:28.289Z,0.79
2023-03-26T15:41:18.754Z,1.15
2023-03-26T15:44:23.337Z,1.04
2023-03-26T15:46:53.878Z,1.18
2023-03-26T15:49:34.034Z,1.24
2023-03-26T15:52:19.544Z,0.84
2023-03-26T15:55:16.788Z,1.17
2023-03-26T15:58:07.793Z,1.32
2023-03-26T16:00:51.907Z,1.35
2023-03-26T16:03:31.019Z,1.24
2023-03-26T16:06:18.805Z,1.15
2023-03-26T16:09:07.950Z,1.21
2023-03-26T16:11:57.053Z,1.02
2023-03-26T16:14:42.144Z,1.12
2023-03-26T16:17:27.070Z,1.15
2023-03-26T16:20:19.540Z,-0.77
2023-03-26T16:22:56.601Z,1.40
2023-03-26T16:25:32.766Z,1.42
2023-03-26T16:28:22.274Z,1.48
2023-03-26T16:31:37.064Z,-1.12
2023-03-26T16:34:07.188Z,0.86
2023-03-26T16:36:41.916Z,-0.43
2023-03-26T16:39:08.658Z,1.27
2023-03-26T16:41:46.851Z,1.26
2023-03-26T16:44:23.709Z,0.93
2023-03-26T16:47:02.550Z,1.44
2023-03-26T16:49:48.079Z,1.48
2023-03-26T16:52:42.800Z,1.27
2023-03-26T16:55:18.406Z,1.40
2023-03-26T16:57:56.346Z,-0.44
2023-03-26T17:00:29.209Z,1.27
2023-03-26T17:03:13.582Z,-1.28
2023-03-26T17:06:06.719Z,1.58
2023-03-26T17:08:45.600Z,1.32
2023-03-26T17:11:51.037Z,1.12
2023-03-26T17:14:50.115Z,1.60
2023-03-26T17:17:50.669Z,1.58
2023-03-26T17:20:36.797Z,0.14
2023-03-26T17:23:23.425Z,-0.31
2023-03-26T17:26:08.869Z,0.87
2023-03-26T17:28:50.520Z,1.32
2023-03-26T17:31:26.350Z,1.44
2023-03-26T17:33:53.669Z,1.46
2023-03-26T17:36:29.748Z,1.50
2023-03-26T17:39:02.862Z,1.26
2023-03-26T17:41:50.802Z,1.31
2023-03-26T17:44:44.631Z,1.22
2023-03-26T17:47:46.819Z,1.21
2023-03-26T17:50:19.775Z,1.16
2023-03-26T17:52:57.017Z,-2.25
2023-03-26T17:55:32.845Z,1.03
2023-03-26T17:58:02.806Z,1.06
2023-03-26T18:00:32.774Z,0.89
2023-03-26T18:03:06.465Z,-0.13
2023-03-26T18:05:34.534Z,0.71
2023-03-26T18:08:16.100Z,0.92
2023-03-26T18:10:48.726Z,0.94
2023-03-26T18:13:52.642Z,0.78
2023-03-26T18:16:36.636Z,0.70
2023-03-26T18:19:18.186Z,0.73
2023-03-26T18:21:53.125Z,0.67
2023-03-26T18:24:25.298Z,0.70
2023-03-26T18:27:00.100Z,0.70
2023-03-26T18:29:57.537Z,0.64
2023-03-26T18:32:40.896Z,0.43
2023-03-26T18:35:20.183Z,0.38
2023-03-26T18:37:49.969Z,0.22
2023-03-26T18:40:20.208Z,0.16
2023-03-26T18:42:56.332Z,-0.50
2023-03-26T18:45:33.599Z,-0.47
2023-03-26T18:48:04.810Z,-0.49
2023-03-26T18:50:38.725Z,-0.84
2023-03-26T18:53:07.217Z,-0.06
2023-03-26T18:55:39.212Z,-0.05
2023-03-26T18:58:28.009Z,-0.01
2023-03-26T19:01:03.988Z,-1.20
2023-03-26T19:03:43.638Z,-0.24
2023-03-26T19:06:13.735Z,-0.34
2023-03-26T19:08:43.717Z,-0.75
2023-03-26T19:11:12.101Z,-0.19
2023-03-26T19:13:43.014Z,-1.20
2023-03-26T19:16:22.800Z,-0.40
2023-03-26T19:18:50.158Z,-1.26
2023-03-26T19:21:18.992Z,-0.31
2023-03-26T19:23:47.271Z,-1.44
2023-03-26T19:26:14.367Z,-0.33
2023-03-26T19:28:50.707Z,-0.39
2023-03-26T19:31:32.838Z,-3.47
2023-03-26T19:34:00.845Z,-0.41
2023-03-26T19:36:52.185Z,-0.29
2023-03-26T19:39:34.681Z,-0.94
2023-03-26T19:42:06.501Z,-0.80
2023-03-26T19:44:33.624Z,-0.69
2023-03-26T19:47:07.744Z,-0.49
2023-03-26T19:49:51.045Z,-0.82
2023-03-26T19:52:24.870Z,-2.29
2023-03-26T19:55:16.609Z,-1.51
2023-03-26T19:57:43.273Z,-2.35
2023-03-26T20:00:14.118Z,-0.91
2023-03-26T20:02:42.388Z,-0.89
2023-03-26T20:05:28.924Z,-1.25
2023-03-26T20:07:58.097Z,-1.39
2023-03-26T20:10:24.703Z,-1.57
2023-03-26T20:12:51.683Z,-6.73
2023-03-26T20:15:27.931Z,-3.34
2023-03-26T20:17:55.678Z,-2.51
2023-03-26T20:20:27.255Z,-1.65
2023-03-26T20:22:54.521Z,-2.34
2023-03-26T20:25:27.718Z,-3.44
2023-03-26T20:27:58.338Z,-1.98
2023-03-26T20:33:11.917Z,-1.82
2023-03-26T20:35:39.744Z,-1.36
2023-03-26T20:38:09.609Z,-1.63
2023-03-26T20:40:38.362Z,-1.38
2023-03-26T20:43:11.745Z,-4.70
2023-03-26T20:45:38.812Z,-1.49
2023-03-26T20:48:05.750Z,-1.84
2023-03-26T20:50:35.710Z,-1.77
2023-03-26T20:53:02.926Z,-2.71
2023-03-26T20:55:29.463Z,-1.80
2023-03-26T20:57:56.265Z,-1.99
2023-03-26T21:00:23.440Z,-2.24
2023-03-26T21:02:54.555Z,-2.27
2023-03-26T21:05:26.996Z,-1.78
2023-03-26T21:07:58.254Z,-1.99
2023-03-26T21:10:27.408Z,-2.26
2023-03-26T21:13:06.010Z,-2.13
2023-03-26T21:15:33.662Z,-3.06
2023-03-26T21:18:01.000Z,-1.96
2023-03-26T21:20:28.445Z,-1.79
2023-03-26T21:23:04.637Z,-2.07
2023-03-26T21:25:46.385Z,-2.33
2023-03-26T21:28:47.874Z,-1.81
2023-03-26T21:31:20.557Z,-2.19
2023-03-26T21:33:49.365Z,-2.00
2023-03-26T21:36:18.434Z,-3.02
2023-03-26T21:38:46.123Z,-3.82
2023-03-26T21:41:36.529Z,-4.13
2023-03-26T21:44:03.626Z,-4.83
2023-03-26T21:46:31.846Z,-4.50
2023-03-26T21:48:59.127Z,-7.11
2023-03-26T21:51:26.258Z,-4.32
2023-03-26T21:53:53.539Z,-7.25
2023-03-26T21:56:41.617Z,-4.58
2023-03-26T21:59:51.338Z,-4.45
2023-03-26T22:02:50.043Z,-4.89
2023-03-26T22:05:20.054Z,-6.11
2023-03-26T22:08:02.903Z,-4.10
2023-03-26T22:10:31.021Z,-3.41
2023-03-26T22:12:58.517Z,-3.06
2023-03-26T22:15:30.994Z,-2.83
2023-03-26T22:18:02.642Z,-2.78
2023-03-26T22:20:29.545Z,-3.61
2023-03-26T22:22:56.681Z,-3.73
2023-03-26T22:25:24.092Z,-4.03
2023-03-26T22:27:51.544Z,-4.01
2023-03-26T22:30:20.738Z,-3.62
2023-03-26T22:32:48.531Z,-3.12
2023-03-26T22:35:15.533Z,-2.92
2023-03-26T22:37:42.586Z,-4.84
2023-03-26T22:40:10.363Z,-3.69
2023-03-26T22:42:37.169Z,-6.82
2023-03-26T22:45:04.618Z,-4.27
2023-03-26T22:47:33.630Z,-4.58
2023-03-26T22:50:00.824Z,-5.18
2023-03-26T22:52:28.069Z,-5.32
2023-03-26T22:54:54.775Z,-5.29
2023-03-26T22:57:24.337Z,-8.74
2023-03-26T22:59:52.052Z,-6.20
2023-03-26T23:02:19.363Z,-4.31
2023-03-26T23:04:47.812Z,-3.80
2023-03-26T23:07:14.566Z,-3.46
2023-03-26T23:09:41.602Z,-3.76
2023-03-26T23:12:08.379Z,-3.52
2023-03-26T23:14:36.222Z,-3.36
2023-03-26T23:17:02.960Z,-3.52
2023-03-26T23:19:30.196Z,-4.36
2023-03-26T23:21:57.376Z,-3.03
2023-03-26T23:24:26.368Z,-3.47
2023-03-26T23:26:53.289Z,-5.05
2023-03-26T23:29:20.111Z,-3.44
2023-03-26T23:31:46.934Z,-3.61
2023-03-26T23:34:14.201Z,-3.01
2023-03-26T23:36:41.901Z,-3.95
2023-03-26T23:39:09.249Z,-2.94
2023-03-26T23:41:36.825Z,-4.32
2023-03-26T23:44:04.144Z,-3.08
2023-03-26T23:46:33.672Z,-3.25
2023-03-26T23:49:03.694Z,-3.04
2023-03-26T23:51:31.254Z,-3.23
2023-03-26T23:53:58.454Z,-4.16
2023-03-26T23:56:27.529Z,-7.77
2023-03-26T23:58:55.181Z,-4.34
